createdAt,value
2022-08-12T00:02:04.643Z,16.90
2022-08-12T00:04:52.905Z,16.68
2022-08-12T00:07:39.962Z,16.38
2022-08-12T00:10:26.579Z,16.18
2022-08-12T00:13:12.887Z,16.09
2022-08-12T00:16:01.543Z,15.94
2022-08-12T00:18:47.060Z,15.72
2022-08-12T00:21:33.243Z,15.85
2022-08-12T00:24:24.753Z,15.76
2022-08-12T00:27:10.726Z,15.60
2022-08-12T00:29:56.323Z,15.49
2022-08-12T00:32:56.638Z,15.61
2022-08-12T00:35:43.122Z,15.34
2022-08-12T00:38:30.319Z,15.30
2022-08-12T00:41:17.560Z,15.27
2022-08-12T00:43:45.774Z,15.22
2022-08-12T00:46:31.480Z,15.18
2022-08-12T00:48:59.780Z,15.13
2022-08-12T00:51:47.960Z,15.04
2022-08-12T00:54:16.969Z,14.95
2022-08-12T00:56:47.869Z,14.99
2022-08-12T00:59:16.010Z,14.99
2022-08-12T01:02:02.369Z,14.88
2022-08-12T01:04:52.502Z,14.75
2022-08-12T01:07:43.679Z,14.65
2022-08-12T01:10:33.039Z,14.52
2022-08-12T01:13:07.359Z,14.65
2022-08-12T01:15:48.434Z,14.71
2022-08-12T01:18:17.699Z,14.54
2022-08-12T01:20:51.565Z,14.50
2022-08-12T01:23:39.277Z,14.49
2022-08-12T01:26:11.867Z,14.48
2022-08-12T01:28:40.387Z,14.36
2022-08-12T01:31:09.809Z,14.56
2022-08-12T01:33:45.371Z,14.60
2022-08-12T01:36:14.417Z,14.56
2022-08-12T01:38:44.706Z,14.53
2022-08-12T01:41:16.727Z,14.44
2022-08-12T01:43:45.795Z,14.41
2022-08-12T01:46:23.476Z,14.42
2022-08-12T01:49:03.047Z,14.26
2022-08-12T01:52:20.798Z,14.17
2022-08-12T01:54:30.347Z,14.25
2022-08-12T01:57:11.138Z,14.14
2022-08-12T01:59:47.557Z,14.08
2022-08-12T02:02:17.745Z,14.15
2022-08-12T02:05:20.887Z,14.10
2022-08-12T02:08:15.988Z,14.22
2022-08-12T02:11:10.670Z,14.06
2022-08-12T02:14:08.400Z,14.01
2022-08-12T02:17:09.922Z,13.96
2022-08-12T02:20:11.276Z,13.96
2022-08-12T02:22:41.651Z,14.07
2022-08-12T02:25:11.883Z,14.06
2022-08-12T02:27:41.633Z,13.98
2022-08-12T02:30:12.096Z,14.02
2022-08-12T02:32:44.474Z,13.92
2022-08-12T02:35:15.097Z,13.85
2022-08-12T02:37:44.792Z,13.70
2022-08-12T02:40:14.413Z,13.63
2022-08-12T02:42:59.671Z,13.69
2022-08-12T02:45:34.793Z,13.57
2022-08-12T02:48:08.232Z,13.54
2022-08-12T02:50:41.453Z,13.54
2022-08-12T02:53:10.522Z,13.44
2022-08-12T02:55:38.593Z,13.40
2022-08-12T02:58:12.565Z,13.31
2022-08-12T03:00:43.675Z,13.27
2022-08-12T03:03:15.433Z,13.06
2022-08-12T03:05:49.115Z,13.28
2022-08-12T03:08:25.736Z,13.25
2022-08-12T03:11:11.687Z,13.18
2022-08-12T03:13:43.042Z,13.08
2022-08-12T03:16:11.086Z,13.01
2022-08-12T03:18:45.705Z,13.11
2022-08-12T03:21:17.417Z,13.07
2022-08-12T03:24:09.358Z,13.07
2022-08-12T03:26:38.701Z,13.01
2022-08-12T03:29:07.669Z,13.03
2022-08-12T03:31:35.823Z,13.08
2022-08-12T03:34:08.398Z,13.05
2022-08-12T03:36:37.551Z,12.97
2022-08-12T03:39:35.330Z,12.98
2022-08-12T03:42:17.308Z,12.86
2022-08-12T03:45:11.952Z,12.82
2022-08-12T03:48:01.556Z,12.74
2022-08-12T03:50:49.193Z,12.74
2022-08-12T03:53:40.203Z,12.86
2022-08-12T03:56:25.915Z,12.83
2022-08-12T03:59:13.653Z,12.69
2022-08-12T04:01:41.941Z,12.66
2022-08-12T04:04:10.772Z,12.70
2022-08-12T04:06:46.042Z,12.58
2022-08-12T04:09:14.802Z,12.54
2022-08-12T04:12:03.551Z,12.70
2022-08-12T04:14:32.145Z,12.69
2022-08-12T04:17:00.222Z,12.70
2022-08-12T04:19:28.255Z,12.69
2022-08-12T04:22:01.734Z,12.70
2022-08-12T04:24:31.702Z,12.75
2022-08-12T04:26:59.675Z,12.85
2022-08-12T04:30:17.244Z,12.76
2022-08-12T04:32:17.003Z,12.84
2022-08-12T04:34:45.262Z,12.88
2022-08-12T04:37:16.761Z,12.93
2022-08-12T04:39:45.648Z,12.92
2022-08-12T04:42:13.756Z,12.98
2022-08-12T04:44:42.572Z,13.07
2022-08-12T04:47:12.892Z,13.12
2022-08-12T04:49:41.322Z,13.08
2022-08-12T04:52:09.412Z,13.24
2022-08-12T04:54:39.410Z,13.24
2022-08-12T04:57:09.806Z,13.34
2022-08-12T04:59:48.132Z,13.42
2022-08-12T05:02:20.950Z,13.46
2022-08-12T05:04:51.773Z,13.51
2022-08-12T05:07:20.167Z,13.64
2022-08-12T05:09:59.829Z,13.73
2022-08-12T05:12:34.487Z,13.79
2022-08-12T05:15:03.913Z,13.93
2022-08-12T05:17:47.912Z,14.01
2022-08-12T05:20:16.815Z,14.18
2022-08-12T05:22:46.075Z,14.25
2022-08-12T05:25:18.400Z,14.35
2022-08-12T05:27:58.566Z,14.46
2022-08-12T05:30:27.753Z,14.64
2022-08-12T05:33:00.087Z,14.74
2022-08-12T05:35:28.932Z,14.79
2022-08-12T05:38:10.772Z,14.95
2022-08-12T05:40:40.191Z,15.08
2022-08-12T05:43:08.245Z,15.20
2022-08-12T05:45:39.230Z,15.27
2022-08-12T05:48:09.632Z,15.34
2022-08-12T05:50:37.666Z,15.46
2022-08-12T05:53:07.159Z,15.55
2022-08-12T05:55:36.092Z,15.71
2022-08-12T05:58:07.952Z,15.90
2022-08-12T06:00:37.300Z,16.02
2022-08-12T06:03:06.987Z,16.17
2022-08-12T06:05:52.728Z,16.17
2022-08-12T06:08:23.753Z,16.29
2022-08-12T06:10:52.260Z,16.31
2022-08-12T06:13:28.274Z,16.42
2022-08-12T06:16:10.472Z,16.55
2022-08-12T06:18:40.212Z,16.70
2022-08-12T06:21:08.772Z,16.75
2022-08-12T06:23:41.963Z,16.95
2022-08-12T06:26:13.037Z,17.06
2022-08-12T06:28:44.076Z,17.20
2022-08-12T06:31:25.909Z,17.42
2022-08-12T06:34:52.766Z,17.57
2022-08-12T06:36:43.432Z,17.60
2022-08-12T06:39:14.239Z,17.78
2022-08-12T06:42:05.203Z,18.05
2022-08-12T06:44:51.123Z,18.31
2022-08-12T06:47:19.828Z,18.39
2022-08-12T06:49:48.755Z,18.43
2022-08-12T06:52:17.433Z,18.33
2022-08-12T06:54:45.980Z,18.47
2022-08-12T06:58:06.630Z,18.66
2022-08-12T07:00:04.303Z,18.87
2022-08-12T07:02:36.411Z,18.85
2022-08-12T07:05:05.563Z,18.89
2022-08-12T07:07:33.685Z,18.82
2022-08-12T07:10:07.794Z,18.77
2022-08-12T07:12:37.173Z,18.85
2022-08-12T07:15:08.111Z,18.96
2022-08-12T07:17:38.028Z,19.10
2022-08-12T07:20:29.872Z,19.11
2022-08-12T07:22:57.834Z,19.35
2022-08-12T07:25:37.902Z,19.47
2022-08-12T07:28:16.249Z,19.59
2022-08-12T07:30:48.636Z,19.81
2022-08-12T07:33:18.058Z,19.92
2022-08-12T07:35:48.566Z,20.15
2022-08-12T07:38:29.051Z,20.18
2022-08-12T07:41:01.853Z,19.94
2022-08-12T07:43:31.172Z,20.02
2022-08-12T07:46:02.226Z,19.90
2022-08-12T07:48:36.945Z,20.08
2022-08-12T07:51:05.654Z,20.17
2022-08-12T07:53:49.121Z,20.44
2022-08-12T07:56:23.313Z,20.36
2022-08-12T07:58:52.131Z,20.41
2022-08-12T08:01:23.040Z,20.64
2022-08-12T08:04:17.942Z,20.72
2022-08-12T08:06:47.729Z,20.58
2022-08-12T08:09:19.383Z,20.60
2022-08-12T08:12:05.004Z,20.59
2022-08-12T08:14:33.161Z,20.60
2022-08-12T08:20:01.815Z,20.77
2022-08-12T08:22:41.037Z,20.58
2022-08-12T08:25:20.176Z,20.45
2022-08-12T08:28:00.664Z,20.49
2022-08-12T08:30:29.872Z,20.44
2022-08-12T08:33:00.025Z,20.34
2022-08-12T08:35:47.147Z,20.34
2022-08-12T08:38:30.082Z,20.26
2022-08-12T08:42:17.445Z,20.14
2022-08-12T08:44:08.049Z,20.22
2022-08-12T08:46:38.177Z,20.33
2022-08-12T08:49:08.716Z,20.65
2022-08-12T08:51:37.531Z,21.06
2022-08-12T08:54:07.003Z,21.20
2022-08-12T08:56:36.442Z,21.47
2022-08-12T08:59:04.843Z,21.85
2022-08-12T09:01:37.341Z,22.00
2022-08-12T09:05:11.314Z,21.83
2022-08-12T09:06:59.771Z,22.16
2022-08-12T09:12:36.155Z,22.63
2022-08-12T09:15:16.884Z,22.56
2022-08-12T09:17:53.452Z,23.42
2022-08-12T09:20:27.505Z,23.93
2022-08-12T09:22:58.971Z,24.31
2022-08-12T09:25:33.501Z,23.98
2022-08-12T09:28:04.896Z,24.45
2022-08-12T09:30:47.673Z,24.10
2022-08-12T09:33:19.038Z,23.33
2022-08-12T09:36:05.994Z,22.66
2022-08-12T09:38:35.645Z,22.56
2022-08-12T09:42:34.137Z,22.57
2022-08-12T09:44:37.851Z,22.78
2022-08-12T09:47:00.327Z,22.42
2022-08-12T09:49:37.166Z,22.33
2022-08-12T09:52:15.838Z,21.99
2022-08-12T09:54:44.293Z,21.74
2022-08-12T09:58:46.740Z,21.58
2022-08-12T10:00:17.666Z,21.95
2022-08-12T10:03:00.994Z,22.12
2022-08-12T10:06:19.990Z,22.44
2022-08-12T10:08:30.589Z,22.64
2022-08-12T10:11:18.350Z,22.87
2022-08-12T10:13:50.308Z,22.93
2022-08-12T10:16:22.720Z,23.09
2022-08-12T10:18:53.825Z,23.11
2022-08-12T10:21:24.281Z,23.13
2022-08-12T10:24:08.537Z,23.20
2022-08-12T10:26:55.558Z,23.07
2022-08-12T10:30:37.439Z,23.08
2022-08-12T10:32:44.719Z,23.12
2022-08-12T10:35:16.826Z,23.23
2022-08-12T10:38:33.382Z,23.34
2022-08-12T10:40:56.553Z,23.76
2022-08-12T10:43:55.508Z,23.68
2022-08-12T10:46:30.481Z,23.55
2022-08-12T10:49:06.930Z,23.45
2022-08-12T10:52:03.752Z,23.50
2022-08-12T10:54:38.117Z,23.45
2022-08-12T10:57:07.846Z,23.64
2022-08-12T11:00:29.597Z,23.67
2022-08-12T11:04:25.126Z,23.75
2022-08-12T11:07:10.201Z,23.82
2022-08-12T11:08:36.143Z,24.32
2022-08-12T11:11:00.336Z,24.24
2022-08-12T11:13:46.271Z,24.38
2022-08-12T11:16:23.104Z,24.15
2022-08-12T11:18:54.975Z,24.09
2022-08-12T11:21:56.817Z,24.22
2022-08-12T11:24:30.753Z,24.17
2022-08-12T11:27:01.970Z,24.50
2022-08-12T11:30:05.975Z,24.21
2022-08-12T11:32:26.437Z,24.63
2022-08-12T11:34:55.298Z,24.76
2022-08-12T11:37:27.317Z,24.57
2022-08-12T11:42:35.373Z,25.28
2022-08-12T11:45:05.806Z,25.72
2022-08-12T11:47:40.390Z,25.64
2022-08-12T11:50:11.700Z,26.23
2022-08-12T11:53:02.313Z,26.22
2022-08-12T11:55:30.790Z,25.49
2022-08-12T11:58:08.648Z,24.93
2022-08-12T12:03:41.568Z,24.64
2022-08-12T12:06:16.336Z,24.94
2022-08-12T12:08:51.024Z,25.11
2022-08-12T12:11:20.891Z,25.26
2022-08-12T12:14:07.929Z,24.95
2022-08-12T12:16:39.973Z,25.21
2022-08-12T12:19:10.602Z,24.91
2022-08-12T12:21:47.272Z,24.53
2022-08-12T12:24:21.585Z,24.26
2022-08-12T12:27:00.078Z,24.44
2022-08-12T12:30:19.772Z,24.42
2022-08-12T12:32:29.048Z,25.22
2022-08-12T12:35:17.915Z,26.07
2022-08-12T12:38:05.432Z,26.32
2022-08-12T12:40:43.891Z,26.83
2022-08-12T12:43:13.934Z,28.51
2022-08-12T12:45:44.534Z,28.44
2022-08-12T12:48:24.011Z,29.53
2022-08-12T12:51:09.237Z,28.25
2022-08-12T12:54:06.541Z,26.65
2022-08-12T12:56:34.087Z,27.24
2022-08-12T12:59:06.315Z,26.54
2022-08-12T13:01:41.969Z,26.07
2022-08-12T13:04:15.550Z,25.80
2022-08-12T13:06:47.085Z,25.79
2022-08-12T13:09:15.703Z,27.89
2022-08-12T13:11:53.225Z,32.90
2022-08-12T13:14:29.532Z,35.54
2022-08-12T13:17:02.896Z,36.22
2022-08-12T13:19:46.897Z,35.32
2022-08-12T13:22:18.838Z,37.12
2022-08-12T13:24:54.759Z,34.37
2022-08-12T13:27:35.194Z,34.75
2022-08-12T13:30:06.839Z,36.25
2022-08-12T13:32:38.754Z,34.85
2022-08-12T13:35:20.431Z,36.19
2022-08-12T13:37:59.469Z,35.32
2022-08-12T13:40:32.323Z,34.84
2022-08-12T13:43:02.099Z,32.31
2022-08-12T13:45:31.600Z,32.49
2022-08-12T13:48:02.151Z,30.49
2022-08-12T13:50:36.598Z,29.92
2022-08-12T13:53:24.642Z,27.91
2022-08-12T13:56:01.970Z,26.52
2022-08-12T13:58:32.992Z,25.77
2022-08-12T14:01:05.754Z,25.25
2022-08-12T14:03:50.413Z,24.81
2022-08-12T14:06:25.926Z,24.69
2022-08-12T14:08:58.232Z,24.68
2022-08-12T14:11:28.053Z,24.99
2022-08-12T14:14:06.077Z,25.44
2022-08-12T14:16:48.758Z,29.12
2022-08-12T14:19:24.143Z,34.28
2022-08-12T14:21:59.165Z,38.54
2022-08-12T14:24:41.045Z,40.41
2022-08-12T14:27:11.210Z,36.23
2022-08-12T14:30:03.947Z,30.98
2022-08-12T14:32:35.660Z,28.83
2022-08-12T14:35:09.012Z,27.56
2022-08-12T14:37:57.363Z,26.41
2022-08-12T14:40:29.171Z,29.16
2022-08-12T14:42:58.245Z,32.62
2022-08-12T14:45:44.411Z,33.62
2022-08-12T14:48:16.665Z,30.78
2022-08-12T14:51:09.646Z,29.85
2022-08-12T14:59:57.357Z,26.91
2022-08-12T15:02:21.268Z,32.47
2022-08-12T15:04:59.135Z,36.69
2022-08-12T15:07:34.333Z,36.79
2022-08-12T15:10:31.171Z,36.15
2022-08-12T15:13:00.204Z,38.98
2022-08-12T15:15:31.454Z,41.96
2022-08-12T15:18:02.644Z,39.49
2022-08-12T15:20:37.265Z,33.08
2022-08-12T15:23:17.906Z,29.54
2022-08-12T15:26:02.473Z,27.27
2022-08-12T15:28:33.075Z,26.36
2022-08-12T15:31:02.423Z,25.55
2022-08-12T15:33:37.845Z,25.02
2022-08-12T15:36:19.226Z,24.70
2022-08-12T15:38:53.233Z,24.22
2022-08-12T15:41:25.633Z,24.08
2022-08-12T15:44:36.975Z,23.83
2022-08-12T15:46:44.990Z,23.76
2022-08-12T15:49:16.765Z,23.68
2022-08-12T15:51:58.479Z,23.46
2022-08-12T15:54:36.232Z,23.47
2022-08-12T15:57:16.801Z,23.58
2022-08-12T15:59:59.909Z,23.96
2022-08-12T16:02:50.223Z,24.18
2022-08-12T16:06:15.507Z,24.27
2022-08-12T16:08:15.251Z,24.26
2022-08-12T16:10:45.569Z,24.28
2022-08-12T16:13:25.092Z,24.43
2022-08-12T16:16:04.041Z,24.71
2022-08-12T16:18:40.559Z,25.13
2022-08-12T16:21:52.719Z,25.55
2022-08-12T16:24:02.102Z,25.05
2022-08-12T16:26:36.068Z,24.81
2022-08-12T16:29:09.286Z,24.23
2022-08-12T16:31:45.057Z,23.99
2022-08-12T16:34:25.859Z,23.74
2022-08-12T16:37:07.114Z,23.55
2022-08-12T16:39:59.859Z,23.28
2022-08-12T16:42:28.256Z,23.13
2022-08-12T16:44:59.570Z,22.97
2022-08-12T16:47:28.189Z,22.82
2022-08-12T16:49:57.958Z,22.76
2022-08-12T16:52:26.066Z,22.67
2022-08-12T16:54:55.312Z,22.65
2022-08-12T16:57:35.101Z,22.62
2022-08-12T17:00:17.143Z,22.47
2022-08-12T17:02:50.609Z,22.53
2022-08-12T17:05:31.389Z,22.52
2022-08-12T17:08:00.470Z,22.72
2022-08-12T17:10:36.209Z,22.57
2022-08-12T17:13:10.048Z,22.50
2022-08-12T17:15:57.057Z,22.37
2022-08-12T17:18:43.851Z,22.31
2022-08-12T17:21:20.085Z,22.27
2022-08-12T17:24:10.659Z,22.15
2022-08-12T17:26:45.432Z,22.10
2022-08-12T17:29:24.256Z,21.07
2022-08-12T17:32:10.271Z,20.19
2022-08-12T17:34:56.270Z,19.73
2022-08-12T17:37:31.733Z,19.61
2022-08-12T17:40:10.811Z,19.62
2022-08-12T17:42:47.618Z,19.67
2022-08-12T17:45:19.761Z,19.65
2022-08-12T17:48:02.253Z,19.71
2022-08-12T17:50:36.027Z,19.83
2022-08-12T17:53:04.741Z,19.57
2022-08-12T17:55:44.113Z,19.49
2022-08-12T17:58:16.639Z,19.51
2022-08-12T18:00:46.113Z,19.34
2022-08-12T18:04:07.006Z,19.30
2022-08-12T18:06:13.850Z,19.38
2022-08-12T18:08:54.280Z,19.30
2022-08-12T18:12:03.892Z,19.13
2022-08-12T18:14:30.206Z,19.16
2022-08-12T18:17:00.674Z,19.21
2022-08-12T18:20:04.314Z,19.02
2022-08-12T18:22:22.105Z,19.28
2022-08-12T18:25:02.594Z,19.16
2022-08-12T18:27:43.728Z,19.08
2022-08-12T18:30:20.982Z,18.94
2022-08-12T18:33:03.645Z,18.89
2022-08-12T18:35:52.934Z,18.85
2022-08-12T18:38:22.633Z,18.88
2022-08-12T18:41:10.952Z,18.72
2022-08-12T18:43:58.491Z,18.55
2022-08-12T18:46:33.267Z,18.50
2022-08-12T18:49:17.981Z,18.36
2022-08-12T18:51:55.431Z,18.36
2022-08-12T18:54:33.274Z,18.27
2022-08-12T18:57:03.907Z,18.15
2022-08-12T19:00:01.681Z,18.23
2022-08-12T19:02:23.208Z,18.08
2022-08-12T19:04:53.488Z,18.00
2022-08-12T19:07:29.757Z,17.84
2022-08-12T19:10:14.977Z,17.81
2022-08-12T19:13:01.148Z,17.65
2022-08-12T19:15:29.736Z,17.52
2022-08-12T19:18:02.350Z,17.44
2022-08-12T19:20:32.002Z,17.28
2022-08-12T19:23:08.189Z,17.30
2022-08-12T19:26:02.217Z,17.23
2022-08-12T19:28:34.755Z,17.19
2022-08-12T19:31:56.301Z,17.12
2022-08-12T19:34:47.113Z,17.10
2022-08-12T19:37:17.338Z,16.95
2022-08-12T19:40:09.896Z,16.92
2022-08-12T19:42:38.913Z,16.97
2022-08-12T19:45:12.709Z,16.62
2022-08-12T19:47:44.795Z,16.68
2022-08-12T19:50:19.735Z,16.72
2022-08-12T19:52:51.410Z,16.53
2022-08-12T19:55:25.365Z,16.53
2022-08-12T19:58:02.455Z,16.54
2022-08-12T20:00:34.590Z,16.54
2022-08-12T20:03:06.442Z,16.53
2022-08-12T20:06:05.995Z,16.47
2022-08-12T20:08:34.404Z,16.36
2022-08-12T20:12:09.730Z,16.42
2022-08-12T20:14:00.783Z,16.33
2022-08-12T20:19:52.788Z,16.34
2022-08-12T20:22:23.853Z,16.33
2022-08-12T20:24:55.230Z,16.35
2022-08-12T20:28:02.962Z,16.39
2022-08-12T20:30:37.309Z,16.37
2022-08-12T20:33:18.259Z,16.23
2022-08-12T20:36:06.396Z,16.13
2022-08-12T20:38:39.905Z,16.25
2022-08-12T20:41:16.654Z,16.11
2022-08-12T20:43:50.664Z,16.29
2022-08-12T20:46:20.986Z,16.21
2022-08-12T20:48:55.323Z,16.03
2022-08-12T20:51:27.621Z,15.94
2022-08-12T20:53:58.744Z,15.86
2022-08-12T20:56:33.471Z,15.87
2022-08-12T20:59:05.500Z,15.82
2022-08-12T21:01:46.492Z,15.82
2022-08-12T21:04:35.397Z,15.93
2022-08-12T21:07:09.344Z,16.04
2022-08-12T21:09:42.443Z,16.03
2022-08-12T21:12:31.055Z,16.08
2022-08-12T21:15:17.173Z,16.12
2022-08-12T21:18:09.079Z,15.99
2022-08-12T21:20:44.664Z,15.91
2022-08-12T21:23:13.916Z,15.85
2022-08-12T21:25:45.304Z,15.84
2022-08-12T21:28:14.627Z,15.85
2022-08-12T21:31:11.694Z,15.88
2022-08-12T21:34:06.182Z,15.75
2022-08-12T21:36:22.525Z,15.72
2022-08-12T21:38:53.985Z,15.71
2022-08-12T21:41:23.805Z,15.57
2022-08-12T21:43:52.634Z,15.56
2022-08-12T21:46:34.912Z,15.48
2022-08-12T21:49:05.446Z,15.47
2022-08-12T21:51:35.984Z,15.30
2022-08-12T21:54:21.831Z,15.41
2022-08-12T21:56:53.521Z,15.30
2022-08-12T21:59:22.975Z,15.33
2022-08-12T22:01:53.932Z,15.32
2022-08-12T22:04:49.953Z,15.23
2022-08-12T22:07:19.588Z,15.18
2022-08-12T22:09:54.238Z,15.26
2022-08-12T22:12:37.533Z,15.15
2022-08-12T22:15:07.642Z,15.02
2022-08-12T22:17:49.820Z,15.06
2022-08-12T22:20:23.885Z,14.93
2022-08-12T22:23:00.409Z,14.86
2022-08-12T22:25:30.465Z,14.88
2022-08-12T22:28:17.865Z,14.94
2022-08-12T22:31:10.837Z,14.90
2022-08-12T22:33:54.005Z,14.83
2022-08-12T22:36:29.189Z,14.71
2022-08-12T22:38:59.048Z,14.69
2022-08-12T22:41:45.786Z,14.62
2022-08-12T22:44:31.127Z,14.57
2022-08-12T22:47:45.700Z,14.38
2022-08-12T22:50:26.838Z,14.37
2022-08-12T22:53:15.000Z,14.24
2022-08-12T22:56:00.700Z,14.21
2022-08-12T22:58:33.868Z,14.23
2022-08-12T23:01:03.298Z,14.35
2022-08-12T23:03:49.336Z,14.39
2022-08-12T23:06:21.466Z,14.41
2022-08-12T23:08:49.955Z,14.35
2022-08-12T23:11:23.771Z,14.26
2022-08-12T23:13:57.060Z,14.29
2022-08-12T23:16:31.537Z,14.36
2022-08-12T23:19:10.666Z,14.34
2022-08-12T23:22:05.356Z,14.42
2022-08-12T23:24:41.219Z,14.39
2022-08-12T23:27:50.793Z,14.39
2022-08-12T23:30:24.709Z,14.40
2022-08-12T23:32:54.604Z,14.44
2022-08-12T23:35:46.120Z,14.33
2022-08-12T23:38:30.868Z,14.27
2022-08-12T23:41:01.207Z,14.25
2022-08-12T23:43:39.394Z,14.21
2022-08-12T23:46:10.388Z,14.28
2022-08-12T23:48:39.056Z,14.27
2022-08-12T23:51:21.522Z,14.24
2022-08-12T23:53:55.338Z,14.22
2022-08-12T23:56:24.295Z,14.23
2022-08-12T23:58:57.529Z,14.27
